Power by www.initrio-led.comwww.initrio-led.comwww.initrio-led.comwww.initrio-led.comwww.initrio-led.com

HONDA HRV CLUB - ศูนย์กลางสถิติ

สถิติทั่วไป

จำนวนสมาชิกทั้งหมด:
371
จำนวนตอบกระทู้ทั้งหมด:
133740
จำนวนหัวข้อทั้งหมด:
112093
จำนวนหมวดหมู่ทั้งหมด:
14
ผู้ใช้งานที่ออนไลน์:
21
ออนไลน์มากที่สุด:
263 - 1 พ.ย. 2017, 08:38:26 น.
ออนไลน์วันนี้:
126
เพจวิวทั้งหมด:
3412162
สมาชิกเฉลี่ยต่อวัน:
0.89
ตอบกระทู้เฉลี่ยต่อวัน:
127.76
หัวข้อเฉลี่ยต่อวัน:
106.16
จำนวนบอร์ดทั้งหมด:
30
สมาชิกล่าสุด:
ittidetcz
ออนไลน์เฉลี่ยต่อวัน:
42.81
อัตราส่วนระหว่างชายกับหญิง:
2.4:1
เฉลี่ยเพจวิวต่อวัน:
3231.21

หัวข้อยอดนิยม 10 หัวข้อแรก (ผู้ตอบสูงสุด)

[[ ขาย ]] จำหน่ายถาดท้ายรถยนต์ HONDA HRV และผ้ายางเข้ารูป ราคาโรงงาน !!!!!!
1591
[รับซื้อรถมือสอง]ราคาสูงที่สุด ทุกรุ่นทุกยี่ห้อ คุยง่ายพร้อมบริการถึงที่ครับ
944
!!!! แรงสุดทั่วราชอาณาจักร ดูแคมเปญสุดเล้าใจพร้อมดาวน์โหลดโปรชัวร์ได้ที่นี้ !!!!
579
!!! รับซื้อ รถ สด แรง เร็ว IN AND OUT car ซื้อทุกรุ่น ทุกยี่ห้อ พร้อมโปรโมชั่นรถ
557
"พรมกระดุม พรมดักฝุ่น สูตรดั้งเดิม ทนมากกกก Mr.CARPET"
432
สีแต้มรถ HONDA HRV ขวดละ 170.- (imixpaint) และอุปกรณ์งานแต้มสีรถ
415
พรมปูพื้นรถยนต์เข้ารูป ผ้ายางปูพื้นรถ ถาดท้าย พรม5D คิ้วกันสาดเข้ารูปเพียง600-!!
401
ขายผ้าคลุมรถHRV กันน้ำ กันแดดคุณภาพเยี่ยม [รับสั่งตัดงานพิเศษ ทุกแบบ] พร้อมส่ง
395
***Saw Palmetto สำหรับชาว HR-V ที่มีปัญหาผมร่วงผมบาง ไม่ส่งผลต่อสมรรถภาพทางเพศ**
387
ล้อป้ายแดง Hrv 17 พร้อมยาง
383

หัวข้อยอดนิยม 10 หัวข้อแรก (ผู้อ่านสูงสุด)

[[ ขาย ]] จำหน่ายถาดท้ายรถยนต์ HONDA HRV และผ้ายางเข้ารูป ราคาโรงงาน !!!!!!
27225
ของแต่ง HR-V มาแว้ว คลิกเลย!!!!!!!!!!!!!! ราคากันเอง ฟรีติดตั้ัง
12161
พรมปูพื้นรถยนต์เข้ารูป ผ้ายางปูพื้นรถ ถาดท้าย พรม5D คิ้วกันสาดเข้ารูปเพียง600-!!
11657
ล้อ ยาง max ใหม่หรือป้ายแดง HONDA HRV หลายชุด ขายถูก ติดตั้งหรือส่งทั่วไทยคร้าบ
8866
[รับซื้อรถมือสอง]ราคาสูงที่สุด ทุกรุ่นทุกยี่ห้อ คุยง่ายพร้อมบริการถึงที่ครับ
8003
"พรมกระดุม พรมดักฝุ่น สูตรดั้งเดิม ทนมากกกก Mr.CARPET"
7677
!!!! แรงสุดทั่วราชอาณาจักร ดูแคมเปญสุดเล้าใจพร้อมดาวน์โหลดโปรชัวร์ได้ที่นี้ !!!!
7192
!!! รับซื้อ รถ สด แรง เร็ว IN AND OUT car ซื้อทุกรุ่น ทุกยี่ห้อ พร้อมโปรโมชั่นรถ
6197
ล้างเเอร์รถยนต์ 500 บาท ซอยหลวงพ่อโต บางพลี พร้อมบริการ ซ่อมเเอร์ ขัดไฟหน้า เเบต
5975
ขายผ้าคลุมรถHRV กันน้ำ กันแดดคุณภาพเยี่ยม [รับสั่งตัดงานพิเศษ ทุกแบบ] พร้อมส่ง
5919

เริ่มหัวข้อใหม่มากที่สุด

ออนไลน์นานที่สุด

montien
1วัน 6ชั่วโมง 6นาที
้hairman
1วัน 5ชั่วโมง 36นาที
aircardok
1วัน 2ชั่วโมง 15นาที
MEE-GUSTO
22ชั่วโมง 27นาที
Teetawat
19ชั่วโมง 20นาที
salestray
18ชั่วโมง 26นาที
mr_carpet
17ชั่วโมง 56นาที
pengeng
15ชั่วโมง 22นาที
ostylegolfzz
15ชั่วโมง 13นาที
lekcar88
14ชั่วโมง 12นาที

รายละเอียดระบบย้อนหลัง

สรุปประจำเดือน หัวข้อใหม่ ตอบกระทู้ใหม่ สมาชิกใหม่ ออนไลน์มากที่สุด เพจวิว
* 2018 28790 33812 78 232 859088
กุมภาพันธ์ 2018 13197 15361 29 232 379907
มกราคม 2018 15593 18451 49 200 479181
2018-01-01 733 788 0 132 18808
2018-01-02 623 723 1 139 17430
2018-01-03 743 852 1 135 20355
2018-01-04 720 814 4 140 20641
2018-01-05 726 801 4 178 23707
2018-01-06 689 759 1 149 23020
2018-01-07 551 653 1 156 19901
2018-01-08 541 650 1 147 17980
2018-01-09 198 280 0 129 7864
2018-01-10 343 429 0 143 12365
2018-01-11 412 498 0 137 13277
2018-01-12 371 474 2 181 11798
2018-01-13 312 393 2 200 11031
2018-01-14 303 352 2 154 11193
2018-01-15 444 508 1 133 12755
2018-01-16 510 599 5 159 15343
2018-01-17 474 608 2 135 15694
2018-01-18 507 620 2 132 15097
2018-01-19 553 657 1 178 15684
2018-01-20 510 607 1 178 15614
2018-01-21 314 389 2 140 11512
2018-01-22 314 424 1 139 10708
2018-01-23 536 626 2 132 16232
2018-01-24 563 642 0 134 16365
2018-01-25 499 608 2 139 13784
2018-01-26 540 634 2 175 15319
2018-01-27 506 589 3 167 15439
2018-01-28 493 596 2 144 14758
2018-01-29 436 534 2 153 13451
2018-01-30 535 633 1 141 14929
2018-01-31 594 711 1 143 17127
* 2017 83030 94959 188 263 2330439
ธันวาคม 2017 21075 23350 21 195 569151
พฤศจิกายน 2017 20293 22242 20 263 530288
2017-11-01 643 693 2 263 19137
2017-11-02 616 674 0 201 25599
2017-11-03 634 680 0 185 17827
2017-11-04 653 701 0 146 15873
2017-11-05 665 712 0 120 16233
2017-11-06 683 748 0 125 16326
2017-11-07 619 698 0 124 15301
2017-11-08 646 721 1 179 16547
2017-11-09 629 720 0 246 17527
2017-11-10 634 711 0 167 17127
2017-11-11 640 678 0 145 15761
2017-11-12 658 692 2 124 15538
2017-11-13 640 686 0 122 16525
2017-11-14 608 677 0 135 17472
2017-11-15 670 744 3 200 16829
2017-11-16 678 742 0 206 17506
2017-11-17 696 761 0 163 17441
2017-11-18 641 691 0 120 16018
2017-11-19 652 706 1 124 15974
2017-11-20 662 750 0 139 16855
2017-11-21 704 788 1 129 17600
2017-11-22 766 846 0 130 19357
2017-11-23 823 920 0 191 22231
2017-11-24 727 809 3 182 18625
2017-11-25 739 819 0 146 19055
2017-11-26 692 744 0 147 16815
2017-11-27 710 771 1 145 17594
2017-11-28 747 811 5 156 19118
2017-11-29 744 810 1 150 19006
2017-11-30 674 739 0 189 17471
ตุลาคม 2017 17994 19931 16 195 473501
2017-10-01 598 650 0 86 13956
2017-10-02 605 678 2 97 14928
2017-10-03 585 662 1 179 17175
2017-10-04 565 623 0 175 14882
2017-10-05 555 606 1 160 14774
2017-10-06 608 681 1 118 15379
2017-10-07 620 666 0 91 14587
2017-10-08 626 696 0 99 16890
2017-10-09 606 670 1 93 14972
2017-10-10 654 732 0 173 17097
2017-10-11 584 653 0 178 17349
2017-10-12 642 713 1 170 16865
2017-10-13 570 614 0 170 14746
2017-10-14 618 659 1 118 15372
2017-10-15 546 594 0 93 13198
2017-10-16 571 640 2 99 13901
2017-10-17 685 757 0 195 17117
2017-10-18 645 718 0 180 17904
2017-10-19 592 671 0 180 17679
2017-10-20 606 690 0 169 16530
2017-10-21 590 639 0 158 15510
2017-10-22 558 609 0 106 13825
2017-10-23 589 646 1 107 14962
2017-10-24 602 681 1 173 15875
2017-10-25 633 684 0 189 17118
2017-10-26 563 596 1 172 15374
2017-10-27 504 565 0 181 14277
2017-10-28 462 514 1 144 12438
2017-10-29 435 495 0 106 11601
2017-10-30 456 533 1 113 12318
2017-10-31 521 596 1 105 14902
กันยายน 2017 16631 18357 22 160 414879
2017-09-01 475 518 0 57 10454
2017-09-02 585 619 3 50 12430
2017-09-03 593 637 1 55 12733
2017-09-04 608 654 3 81 13423
2017-09-05 594 646 1 88 13389
2017-09-06 583 644 1 66 13289
2017-09-07 489 536 0 61 10891
2017-09-08 546 591 2 63 12916
2017-09-09 522 551 0 55 12249
2017-09-10 565 614 0 61 12845
2017-09-11 521 580 0 111 11981
2017-09-12 536 604 0 118 13542
2017-09-13 557 617 0 67 12438
2017-09-14 517 579 2 68 12238
2017-09-15 548 599 0 65 12393
2017-09-16 540 598 0 56 22579
2017-09-17 531 574 0 58 12030
2017-09-18 550 605 0 71 12597
2017-09-19 556 623 2 148 25091
2017-09-20 583 664 1 92 14345
2017-09-21 591 653 1 87 13607
2017-09-22 590 664 0 81 14166
2017-09-23 574 643 1 82 15804
2017-09-24 588 637 0 81 13373
2017-09-25 462 542 0 77 11484
2017-09-26 537 631 0 160 14776
2017-09-27 549 632 1 139 14624
2017-09-28 574 639 2 117 14373
2017-09-29 577 633 1 79 15109
2017-09-30 590 630 0 92 13710
สิงหาคม 2017 6944 7765 34 86 177610
กรกฎาคม 2017 20 472 20 24 11154
มิถุนายน 2017 13 489 10 21 19526
พฤษภาคม 2017 6 227 0 19 8523
เมษายน 2017 11 223 5 109 13439
2017-04-01 0 12 1 34 2116
2017-04-02 3 24 1 52 530
2017-04-03 0 20 0 41 505
2017-04-04 0 23 0 109 2241
2017-04-05 3 15 1 96 1097
2017-04-06 0 34 0 74 862
2017-04-07 2 22 2 69 1119
2017-04-08 2 14 0 62 944
2017-04-09 0 21 0 64 1792
2017-04-10 1 20 0 68 825
2017-04-11 0 18 0 60 538
2017-04-12 0 0 0 38 504
2017-04-13 0 0 0 39 312
2017-04-14 0 0 0 2 36
2017-04-15 0 0 0 0 15
2017-04-16 0 0 0 1 1
2017-04-17 0 0 0 1 1
2017-04-18 0 0 0 1 1
มีนาคม 2017 15 719 10 74 42902
กุมภาพันธ์ 2017 12 574 18 95 27236
มกราคม 2017 16 610 12 92 42230
2017-01-01 0 19 1 56 820
2017-01-02 0 9 0 17 1365
2017-01-03 2 14 1 19 296
2017-01-04 0 20 0 52 1093
2017-01-05 0 21 0 67 983
2017-01-06 1 14 2 59 739
2017-01-07 0 28 0 55 7849
2017-01-08 1 21 0 47 968
2017-01-09 0 14 0 52 7624
2017-01-10 0 20 0 54 847
2017-01-11 0 17 0 56 744
2017-01-12 2 19 0 48 1760
2017-01-13 0 27 0 43 608
2017-01-14 0 26 5 53 657
2017-01-15 1 21 0 47 756
2017-01-16 0 20 1 51 753
2017-01-17 1 16 1 45 632
2017-01-18 0 19 0 53 1088
2017-01-19 1 19 0 51 981
2017-01-20 0 18 0 42 1445
2017-01-21 1 20 0 41 706
2017-01-22 0 19 0 49 726
2017-01-23 1 22 0 50 743
2017-01-24 1 22 0 57 1134
2017-01-25 0 25 0 68 1161
2017-01-26 2 22 1 92 1088
2017-01-27 0 18 0 43 1127
2017-01-28 0 26 0 29 1742
2017-01-29 1 19 0 40 494
2017-01-30 0 14 0 45 841
2017-01-31 1 21 0 46 460
* 2016 254 5653 534 175 198775
ธันวาคม 2016 7 629 6 56 19786
พฤศจิกายน 2016 13 568 10 52 24760
2016-11-01 1 22 0 46 644
2016-11-02 0 15 0 30 4125
2016-11-03 0 34 1 26 2519
2016-11-04 1 33 0 31 660
2016-11-05 0 35 0 37 558
2016-11-06 0 16 1 32 436
2016-11-07 1 37 0 35 594
2016-11-08 0 21 0 47 517
2016-11-09 5 28 1 22 1484
2016-11-10 1 19 1 22 353
2016-11-11 0 17 1 32 702
2016-11-12 0 26 0 42 478
2016-11-13 0 13 0 38 631
2016-11-14 0 13 1 28 368
2016-11-15 0 21 0 45 486
2016-11-16 2 17 0 52 870
2016-11-17 0 17 0 44 557
2016-11-18 0 10 0 42 561
2016-11-19 0 14 0 45 745
2016-11-20 0 11 1 40 1525
2016-11-21 1 13 1 45 902
2016-11-22 0 21 0 38 680
2016-11-23 0 10 1 41 476
2016-11-24 0 15 0 42 636
2016-11-25 0 11 0 50 510
2016-11-26 0 16 0 43 626
2016-11-27 0 14 0 36 516
2016-11-28 0 17 0 42 513
2016-11-29 1 17 1 44 735
2016-11-30 0 15 0 39 353
ตุลาคม 2016 13 601 11 69 20621
2016-10-01 1 18 1 45 738
2016-10-02 0 17 0 55 445
2016-10-03 0 21 0 36 548
2016-10-04 0 20 0 29 1459
2016-10-05 0 14 0 28 682
2016-10-06 1 21 1 28 442
2016-10-07 1 18 0 34 370
2016-10-08 0 16 0 48 609
2016-10-09 1 17 1 53 588
2016-10-10 0 23 0 44 876
2016-10-11 1 18 2 36 540
2016-10-12 0 18 0 45 766
2016-10-13 0 20 0 35 451
2016-10-14 3 16 0 43 511
2016-10-15 0 17 0 38 655
2016-10-16 0 17 1 53 631
2016-10-17 1 23 1 37 791
2016-10-18 0 23 1 38 412
2016-10-19 2 20 1 48 684
2016-10-20 0 21 0 42 532
2016-10-21 0 20 0 33 457
2016-10-22 0 12 0 26 353
2016-10-23 1 16 1 14 659
2016-10-24 0 15 0 26 289
2016-10-25 0 19 0 69 713
2016-10-26 0 34 0 51 886
2016-10-27 0 28 0 54 630
2016-10-28 0 30 0 54 676
2016-10-29 0 23 0 50 802
2016-10-30 0 9 0 50 1595
2016-10-31 1 17 1 48 831
กันยายน 2016 9 690 14 54 20567
2016-09-01 1 29 1 53 824
2016-09-02 0 23 0 39 595
2016-09-03 0 24 0 35 1595
2016-09-04 0 28 1 35 541
2016-09-05 0 29 1 49 572
2016-09-06 0 27 1 45 762
2016-09-07 0 25 0 17 417
2016-09-08 0 26 0 17 531
2016-09-09 0 23 0 28 652
2016-09-10 4 28 2 54 891
2016-09-11 0 18 0 39 827
2016-09-12 0 25 0 45 697
2016-09-13 0 25 0 41 1532
2016-09-14 0 35 0 39 717
2016-09-15 0 25 0 40 548
2016-09-16 1 28 1 42 697
2016-09-17 0 16 0 51 628
2016-09-18 0 15 0 30 492
2016-09-19 0 22 0 25 457
2016-09-20 0 23 0 24 418
2016-09-21 0 21 0 25 388
2016-09-22 0 20 0 26 399
2016-09-23 1 21 2 27 1382
2016-09-24 0 16 1 53 719
2016-09-25 0 20 1 51 596
2016-09-26 1 20 0 43 714
2016-09-27 0 20 0 46 473
2016-09-28 1 21 3 34 647
2016-09-29 0 19 0 39 419
2016-09-30 0 18 0 38 437
สิงหาคม 2016 48 673 21 50 21743
2016-08-01 8 29 3 40 917
2016-08-02 10 31 2 34 595
2016-08-03 2 22 1 37 680
2016-08-04 8 29 1 33 1474
2016-08-05 6 27 1 31 537
2016-08-06 6 23 0 37 668
2016-08-07 0 15 0 26 367
2016-08-08 0 20 2 44 764
2016-08-09 0 24 0 36 494
2016-08-10 0 20 0 28 431
2016-08-11 0 20 0 25 554
2016-08-12 0 12 0 31 400
2016-08-13 0 15 0 28 504
2016-08-14 0 14 0 36 1437
2016-08-15 1 20 1 25 656
2016-08-16 0 19 0 25 321
2016-08-17 1 19 1 21 304
2016-08-18 0 22 0 24 563
2016-08-19 0 20 0 47 554
2016-08-20 0 17 1 43 814
2016-08-21 0 15 1 50 596
2016-08-22 2 25 1 42 769
2016-08-23 1 25 1 47 743
2016-08-24 0 25 1 27 1661
2016-08-25 0 24 1 33 899
2016-08-26 1 25 0 33 1224
2016-08-27 1 20 0 16 638
2016-08-28 0 20 0 21 523
2016-08-29 1 24 2 20 475
2016-08-30 0 26 1 18 505
2016-08-31 0 26 0 47 676
กรกฎาคม 2016 72 591 225 175 38662
2016-07-01 0 14 1 33 368
2016-07-02 0 14 0 26 366
2016-07-03 0 10 2 18 257
2016-07-04 0 17 2 17 1351
2016-07-05 0 20 1 21 500
2016-07-06 0 13 2 20 316
2016-07-07 0 18 1 22 251
2016-07-08 0 16 3 28 409
2016-07-09 0 11 1 38 307
2016-07-10 1 14 2 15 369
2016-07-11 0 18 1 22 276
2016-07-12 3 22 0 19 296
2016-07-13 0 20 3 21 412
2016-07-14 0 18 1 23 1323
2016-07-15 0 20 51 175 2630
2016-07-16 1 13 62 152 4015
2016-07-17 5 17 66 133 3796
2016-07-18 3 20 16 83 2094
2016-07-19 2 16 0 65 1154
2016-07-20 11 31 2 107 1963
2016-07-21 0 17 1 57 1423
2016-07-22 2 23 0 61 1249
2016-07-23 5 22 0 70 1338
2016-07-24 1 18 0 82 1743
2016-07-25 3 23 0 102 2629
2016-07-26 5 22 2 51 1436
2016-07-27 7 26 2 54 1008
2016-07-28 5 26 1 29 1687
2016-07-29 8 31 2 34 1860
2016-07-30 6 23 0 20 835
2016-07-31 4 18 0 55 1001
มิถุนายน 2016 7 441 43 32 13927
2016-06-01 0 15 3 18 405
2016-06-02 0 12 3 15 200
2016-06-03 0 10 1 17 1215
2016-06-04 0 12 1 17 277
2016-06-05 0 13 0 13 294
2016-06-06 0 20 0 22 286
2016-06-07 0 12 0 15 254
2016-06-08 0 16 1 22 285
2016-06-09 0 13 0 19 293
2016-06-10 0 15 1 20 468
2016-06-11 0 12 2 19 219
2016-06-12 0 9 1 17 250
2016-06-13 0 11 1 20 1295
2016-06-14 0 19 1 21 252
2016-06-15 1 18 1 24 305
2016-06-16 0 13 1 24 430
2016-06-17 0 15 6 32 452
2016-06-18 0 10 0 23 679
2016-06-19 0 12 2 21 645
2016-06-20 0 14 2 15 675
2016-06-21 2 19 2 16 361
2016-06-22 1 18 2 25 372
2016-06-23 2 22 1 20 317
2016-06-24 0 15 4 31 1535
2016-06-25 0 17 0 25 333
2016-06-26 1 15 2 17 249
2016-06-27 0 16 3 21 372
2016-06-28 0 17 0 17 438
2016-06-29 0 15 1 22 328
2016-06-30 0 16 1 22 443
พฤษภาคม 2016 65 449 46 26 11172
เมษายน 2016 5 264 48 19 7599
มีนาคม 2016 1 269 35 27 7042
กุมภาพันธ์ 2016 6 268 35 29 7327
2016-02-01 0 8 0 21 231
2016-02-02 2 15 4 18 620
2016-02-03 1 11 1 17 304
2016-02-04 0 9 0 17 246
2016-02-05 1 12 1 12 263
2016-02-06 0 8 1 21 271
2016-02-07 1 9 1 15 247
2016-02-08 0 13 1 17 449
2016-02-09 0 12 3 29 674
2016-02-10 0 11 3 24 329
2016-02-11 0 10 2 19 184
2016-02-12 0 9 2 18 228
2016-02-13 0 9 0 7 149
2016-02-14 0 10 0 13 151
2016-02-15 0 6 2 12 127
2016-02-16 1 9 1 14 195
2016-02-17 0 10 1 15 220
2016-02-18 0 7 2 13 160
2016-02-19 0 9 1 11 173
2016-02-20 0 10 1 15 228
2016-02-21 0 8 1 12 205
2016-02-22 0 5 2 19 173
2016-02-23 0 6 1 12 164
2016-02-24 0 7 0 14 171
2016-02-25 0 11 0 20 187
2016-02-26 0 6 0 12 174
2016-02-27 0 9 3 16 308
2016-02-28 0 10 0 12 289
2016-02-29 0 9 1 14 207
มกราคม 2016 8 210 40 18 5569
2016-01-01 0 1 0 6 84
2016-01-02 0 1 0 7 127
2016-01-03 1 8 2 9 147
2016-01-04 0 5 1 15 177
2016-01-05 0 7 0 13 167
2016-01-06 1 7 2 9 155
2016-01-07 0 5 2 11 139
2016-01-08 0 7 4 11 170
2016-01-09 0 6 0 9 139
2016-01-10 0 6 0 12 133
2016-01-11 0 4 0 12 200
2016-01-12 0 7 0 15 229
2016-01-13 0 6 2 17 201
2016-01-14 1 9 2 14 199
2016-01-15 0 6 0 10 119
2016-01-16 0 5 0 13 166
2016-01-17 0 4 2 11 153
2016-01-18 0 7 1 16 135
2016-01-19 0 8 5 14 243
2016-01-20 0 6 2 11 137
2016-01-21 1 7 2 16 203
2016-01-22 0 8 0 13 138
2016-01-23 0 6 3 13 188
2016-01-24 1 9 1 14 257
2016-01-25 2 10 3 17 246
2016-01-26 0 12 1 13 215
2016-01-27 1 9 3 17 253
2016-01-28 0 9 1 12 177
2016-01-29 0 10 0 18 244
2016-01-30 0 8 0 13 192
2016-01-31 0 7 1 13 236
* 2015 35 492 137 43 23860
ธันวาคม 2015 3 149 26 19 5083
2015-12-01 0 6 1 13 130
2015-12-02 0 5 0 10 102
2015-12-03 0 4 1 12 106
2015-12-04 0 4 1 10 116
2015-12-05 0 3 0 11 105
2015-12-06 0 3 0 8 91
2015-12-07 0 5 2 15 125
2015-12-08 0 6 0 9 137
2015-12-09 0 5 2 11 122
2015-12-10 0 5 0 15 144
2015-12-11 0 4 1 10 127
2015-12-12 0 4 1 13 138
2015-12-13 0 4 1 19 206
2015-12-14 0 4 1 9 149
2015-12-15 0 4 2 19 185
2015-12-16 0 5 0 12 171
2015-12-17 0 4 2 14 182
2015-12-18 1 4 2 10 164
2015-12-19 0 3 1 9 162
2015-12-20 0 4 0 14 180
2015-12-21 1 12 2 13 266
2015-12-22 0 7 1 15 226
2015-12-23 0 7 0 17 236
2015-12-24 0 4 0 14 219
2015-12-25 0 7 0 17 281
2015-12-26 0 5 0 13 202
2015-12-27 0 4 0 11 140
2015-12-28 1 8 3 14 206
2015-12-29 0 5 1 12 209
2015-12-30 0 3 0 12 137
2015-12-31 0 1 1 10 119
พฤศจิกายน 2015 3 107 12 43 3970
ตุลาคม 2015 3 34 13 12 2397
กันยายน 2015 2 33 18 12 1923
2015-09-01 0 1 0 4 25
2015-09-02 0 1 1 4 38
2015-09-03 0 1 0 7 75
2015-09-04 0 1 0 5 36
2015-09-05 0 1 1 4 36
2015-09-06 0 2 0 8 70
2015-09-07 1 2 1 5 76
2015-09-08 0 1 2 3 63
2015-09-09 0 1 1 6 78
2015-09-10 0 1 0 5 42
2015-09-11 0 1 0 4 30
2015-09-12 0 1 1 4 71
2015-09-13 0 2 0 4 75
2015-09-14 0 1 0 6 47
2015-09-15 0 1 0 8 90
2015-09-16 1 2 3 6 103
2015-09-17 0 1 0 9 72
2015-09-18 0 1 0 6 40
2015-09-19 0 0 1 6 102
2015-09-20 0 1 0 9 86
2015-09-21 0 1 1 9 76
2015-09-22 0 1 1 7 72
2015-09-23 0 1 2 7 82
2015-09-24 0 1 0 8 61
2015-09-25 0 1 0 6 35
2015-09-26 0 0 1 12 90
2015-09-27 0 2 1 10 91
2015-09-28 0 1 1 6 54
2015-09-29 0 1 0 11 68
2015-09-30 0 1 0 4 39
สิงหาคม 2015 1 35 13 10 1436
2015-08-01 0 1 0 6 53
2015-08-02 0 2 0 6 54
2015-08-03 0 1 0 3 24
2015-08-04 0 1 0 7 53
2015-08-05 0 1 0 2 20
2015-08-06 0 1 0 5 33
2015-08-07 0 1 1 4 35
2015-08-08 0 1 0 4 50
2015-08-09 0 2 1 5 83
2015-08-10 0 1 1 3 44
2015-08-11 0 1 0 3 27
2015-08-12 0 0 1 4 19
2015-08-13 0 1 0 4 37
2015-08-14 0 1 0 4 34
2015-08-15 0 1 1 5 30
2015-08-16 0 2 0 4 47
2015-08-17 1 2 1 5 63
2015-08-18 0 1 1 5 59
2015-08-19 0 1 0 10 84
2015-08-20 0 1 1 5 74
2015-08-21 0 2 2 8 84
2015-08-22 0 1 2 4 60
2015-08-23 0 2 0 7 55
2015-08-24 0 1 0 5 40
2015-08-25 0 1 0 6 46
2015-08-26 0 1 0 5 44
2015-08-27 0 1 0 2 23
2015-08-28 0 0 0 7 40
2015-08-29 0 0 0 5 28
2015-08-30 0 2 1 7 50
2015-08-31 0 1 0 6 43
กรกฎาคม 2015 1 33 7 9 1695
มิถุนายน 2015 2 38 12 10 1943
2015-06-01 0 2 1 6 92
2015-06-02 1 3 2 6 85
2015-06-03 0 1 1 6 69
2015-06-04 0 1 0 5 34
2015-06-05 0 2 0 7 73
2015-06-06 0 1 0 7 57
2015-06-07 0 1 1 9 108
2015-06-08 0 2 0 8 111
2015-06-09 0 1 0 10 74
2015-06-10 0 1 0 9 67
2015-06-11 0 1 1 8 96
2015-06-12 0 1 0 6 58
2015-06-13 0 0 0 4 37
2015-06-14 0 1 0 6 52
2015-06-15 0 1 0 6 62
2015-06-16 0 1 1 7 60
2015-06-17 0 1 0 7 45
2015-06-18 0 1 0 5 65
2015-06-19 0 1 0 7 49
2015-06-20 0 1 1 8 75
2015-06-21 1 2 0 5 55
2015-06-22 0 1 0 6 38
2015-06-23 0 3 0 7 76
2015-06-24 0 1 0 4 35
2015-06-25 0 1 0 8 50
2015-06-26 0 1 0 7 47
2015-06-27 0 1 0 7 54
2015-06-28 0 1 0 8 91
2015-06-29 0 2 2 7 88
2015-06-30 0 1 2 5 40
พฤษภาคม 2015 1 30 21 10 1886
เมษายน 2015 19 33 15 12 3527

TOP